createdAt,value
2023-03-21T00:00:24.488Z,10.27
2023-03-21T00:02:51.347Z,9.10
2023-03-21T00:05:18.072Z,9.93
2023-03-21T00:07:44.682Z,8.40
2023-03-21T00:10:16.496Z,10.37
2023-03-21T00:12:44.916Z,9.17
2023-03-21T00:15:12.876Z,10.00
2023-03-21T00:17:39.746Z,9.70
2023-03-21T00:20:15.036Z,10.67
2023-03-21T00:22:41.873Z,10.07
2023-03-21T00:25:10.586Z,10.90
2023-03-21T00:27:56.874Z,9.93
2023-03-21T00:30:24.278Z,13.40
2023-03-21T00:32:56.450Z,9.80
2023-03-21T00:36:12.575Z,8.83
2023-03-21T00:38:10.746Z,10.03
2023-03-21T00:40:43.735Z,10.67
2023-03-21T00:43:17.512Z,8.67
2023-03-21T00:45:45.290Z,9.53
2023-03-21T00:48:12.792Z,9.10
2023-03-21T00:50:40.127Z,12.30
2023-03-21T00:53:07.342Z,10.97
2023-03-21T00:55:33.973Z,8.57
2023-03-21T00:58:02.492Z,9.93
2023-03-21T01:00:30.095Z,9.23
2023-03-21T01:03:04.494Z,10.83
2023-03-21T01:05:57.233Z,8.37
2023-03-21T01:08:30.994Z,9.43
2023-03-21T01:11:04.429Z,9.47
2023-03-21T01:13:33.080Z,11.43
2023-03-21T01:16:02.046Z,9.33
2023-03-21T01:18:30.281Z,12.70
2023-03-21T01:20:59.850Z,9.47
2023-03-21T01:23:28.865Z,14.33
2023-03-21T01:25:56.623Z,11.80
2023-03-21T01:28:25.807Z,17.13
2023-03-21T01:30:52.689Z,11.83
2023-03-21T01:33:20.859Z,15.10
2023-03-21T01:35:55.185Z,17.13
2023-03-21T01:38:27.103Z,19.00
2023-03-21T01:40:53.918Z,16.10
2023-03-21T01:43:25.676Z,16.10
2023-03-21T01:46:22.421Z,16.33
2023-03-21T01:48:54.871Z,18.90
2023-03-21T01:51:22.339Z,18.57
2023-03-21T01:53:49.215Z,17.40
2023-03-21T01:56:32.990Z,19.93
2023-03-21T01:59:08.018Z,17.80
2023-03-21T02:04:38.167Z,15.03
2023-03-21T02:07:10.162Z,19.13
2023-03-21T02:09:40.189Z,20.50
2023-03-21T02:12:09.245Z,21.03
2023-03-21T02:14:37.690Z,19.30
2023-03-21T02:17:27.230Z,22.73
2023-03-21T02:20:14.984Z,23.87
2023-03-21T02:23:31.006Z,25.13
2023-03-21T02:26:16.351Z,22.50
2023-03-21T02:28:47.318Z,25.73
2023-03-21T02:31:32.306Z,25.40
2023-03-21T02:34:42.493Z,22.33
2023-03-21T02:37:37.634Z,21.90
2023-03-21T02:40:23.389Z,23.97
2023-03-21T02:43:14.164Z,26.47
2023-03-21T02:45:57.970Z,30.37
2023-03-21T02:48:51.063Z,31.40
2023-03-21T02:51:21.867Z,27.73
2023-03-21T02:54:16.226Z,28.43
2023-03-21T02:56:41.348Z,28.63
2023-03-21T02:59:08.765Z,26.87
2023-03-21T03:01:35.726Z,27.33
2023-03-21T03:04:03.023Z,33.30
2023-03-21T03:06:37.957Z,29.87
2023-03-21T03:09:14.615Z,29.43
2023-03-21T03:11:43.940Z,31.53
2023-03-21T03:14:44.144Z,28.87
2023-03-21T03:17:23.523Z,33.30
2023-03-21T03:20:17.501Z,28.33
2023-03-21T03:22:51.860Z,30.50
2023-03-21T03:25:36.011Z,31.27
2023-03-21T03:28:08.980Z,28.83
2023-03-21T03:30:44.717Z,34.27
2023-03-21T03:33:17.875Z,34.57
2023-03-21T03:35:55.849Z,32.27
2023-03-21T03:38:29.923Z,30.87
2023-03-21T03:41:01.739Z,32.77
2023-03-21T03:43:40.888Z,32.20
2023-03-21T03:46:21.973Z,29.67
2023-03-21T03:48:54.705Z,31.97
2023-03-21T03:51:33.670Z,30.57
2023-03-21T03:54:06.425Z,31.20
2023-03-21T03:56:33.992Z,33.77
2023-03-21T03:59:04.359Z,35.60
2023-03-21T04:01:31.029Z,35.40
2023-03-21T04:04:11.938Z,38.93
2023-03-21T04:06:39.382Z,32.73
2023-03-21T04:09:19.304Z,36.20
2023-03-21T04:11:47.679Z,34.37
2023-03-21T04:14:14.348Z,32.87
2023-03-21T04:16:40.957Z,32.80
2023-03-21T04:19:07.611Z,36.13
2023-03-21T04:21:34.250Z,34.40
2023-03-21T04:24:01.268Z,29.47
2023-03-21T04:26:32.893Z,33.87
2023-03-21T04:29:00.821Z,29.37
2023-03-21T04:31:28.529Z,29.73
2023-03-21T04:33:55.844Z,31.13
2023-03-21T04:36:27.711Z,31.93
2023-03-21T04:38:54.993Z,34.80
2023-03-21T04:41:21.584Z,31.23
2023-03-21T04:43:48.314Z,39.87
2023-03-21T04:46:15.440Z,31.07
2023-03-21T04:48:42.115Z,34.63
2023-03-21T04:51:08.767Z,29.67
2023-03-21T04:53:35.583Z,32.90
2023-03-21T04:56:02.144Z,30.97
2023-03-21T04:58:28.719Z,34.53
2023-03-21T05:00:57.302Z,33.50
2023-03-21T05:03:24.832Z,34.43
2023-03-21T05:05:51.486Z,37.90
2023-03-21T05:08:18.034Z,31.87
2023-03-21T05:10:44.652Z,35.17
2023-03-21T05:13:11.224Z,36.53
2023-03-21T05:15:38.219Z,33.53
2023-03-21T05:18:11.418Z,37.93
2023-03-21T05:20:42.741Z,35.23
2023-03-21T05:23:10.890Z,41.87
2023-03-21T05:25:39.039Z,36.93
2023-03-21T05:28:07.148Z,35.23
2023-03-21T05:30:34.218Z,32.47
2023-03-21T05:33:01.012Z,31.50
2023-03-21T05:35:27.992Z,32.83
2023-03-21T05:37:54.767Z,32.80
2023-03-21T05:40:21.539Z,37.27
2023-03-21T05:42:48.653Z,31.33
2023-03-21T05:45:15.989Z,36.53
2023-03-21T05:47:42.618Z,33.33
2023-03-21T05:50:11.133Z,31.27
2023-03-21T05:52:37.699Z,36.40
2023-03-21T05:55:05.354Z,32.57
2023-03-21T05:57:35.004Z,37.80
2023-03-21T06:00:01.980Z,32.77
2023-03-21T06:02:28.605Z,34.07
2023-03-21T06:04:56.554Z,34.30
2023-03-21T06:07:23.861Z,32.20
2023-03-21T06:09:50.458Z,32.67
2023-03-21T06:12:16.994Z,34.30
2023-03-21T06:14:43.552Z,35.53
2023-03-21T06:17:10.162Z,35.57
2023-03-21T06:19:36.819Z,33.23
2023-03-21T06:22:03.650Z,33.30
2023-03-21T06:24:30.511Z,34.53
2023-03-21T06:26:57.184Z,36.10
2023-03-21T06:29:23.864Z,39.37
2023-03-21T06:31:50.633Z,31.80
2023-03-21T06:34:17.263Z,34.07
2023-03-21T06:36:44.696Z,31.10
2023-03-21T06:39:11.353Z,34.80
2023-03-21T06:41:38.016Z,35.17
2023-03-21T06:44:04.949Z,30.37
2023-03-21T06:46:31.613Z,38.27
2023-03-21T06:48:58.252Z,34.70
2023-03-21T06:51:24.822Z,38.43
2023-03-21T06:53:51.405Z,33.47
2023-03-21T06:56:18.017Z,32.90
2023-03-21T06:58:44.564Z,35.73
2023-03-21T07:01:11.159Z,34.03
2023-03-21T07:03:37.914Z,36.03
2023-03-21T07:06:11.650Z,35.00
2023-03-21T07:08:39.706Z,36.37
2023-03-21T07:11:06.979Z,34.53
2023-03-21T07:13:33.675Z,33.27
2023-03-21T07:16:00.619Z,34.37
2023-03-21T07:18:27.587Z,34.23
2023-03-21T07:20:54.198Z,31.47
2023-03-21T07:23:23.064Z,37.97
2023-03-21T07:25:51.394Z,32.93
2023-03-21T07:28:19.416Z,31.80
2023-03-21T07:30:55.893Z,35.43
2023-03-21T07:33:23.647Z,37.20
2023-03-21T07:35:51.657Z,36.00
2023-03-21T07:38:19.276Z,35.90
2023-03-21T07:40:47.946Z,32.70
2023-03-21T07:43:15.505Z,35.37
2023-03-21T07:45:42.660Z,33.67
2023-03-21T07:48:10.898Z,38.43
2023-03-21T07:50:37.626Z,32.90
2023-03-21T07:53:04.603Z,36.23
2023-03-21T07:55:34.855Z,38.00
2023-03-21T07:58:03.198Z,35.77
2023-03-21T08:00:30.412Z,35.07
2023-03-21T08:02:59.039Z,38.23
2023-03-21T08:05:30.085Z,39.47
2023-03-21T08:07:57.357Z,39.27
2023-03-21T08:10:24.393Z,35.50
2023-03-21T08:12:51.012Z,39.27
2023-03-21T08:15:17.775Z,36.33
2023-03-21T08:17:45.574Z,38.47
2023-03-21T08:20:18.071Z,39.53
2023-03-21T08:22:44.727Z,35.47
2023-03-21T08:25:13.883Z,34.57
2023-03-21T08:27:42.114Z,38.10
2023-03-21T08:30:10.869Z,37.33
2023-03-21T08:32:38.697Z,34.27
2023-03-21T08:35:10.060Z,37.90
2023-03-21T08:37:37.668Z,39.20
2023-03-21T08:40:11.395Z,35.53
2023-03-21T08:42:39.069Z,47.63
2023-03-21T08:45:06.702Z,43.10
2023-03-21T08:47:33.451Z,36.77
2023-03-21T08:50:00.245Z,35.83
2023-03-21T08:52:27.634Z,38.47
2023-03-21T08:54:54.591Z,36.37
2023-03-21T08:57:21.330Z,35.73
2023-03-21T08:59:47.991Z,35.27
2023-03-21T09:02:16.140Z,37.07
2023-03-21T09:04:44.704Z,33.53
2023-03-21T09:07:14.241Z,33.13
2023-03-21T09:09:41.668Z,29.57
2023-03-21T09:12:08.661Z,30.90
2023-03-21T09:14:35.472Z,29.87
2023-03-21T09:17:02.357Z,26.80
2023-03-21T09:19:30.029Z,29.10
2023-03-21T09:21:57.565Z,29.27
2023-03-21T09:24:24.251Z,31.20
2023-03-21T09:26:51.714Z,26.90
2023-03-21T09:29:23.153Z,28.77
2023-03-21T09:31:49.720Z,26.67
2023-03-21T09:34:16.359Z,25.67
2023-03-21T09:36:44.256Z,26.03
2023-03-21T09:39:11.941Z,28.33
2023-03-21T09:41:55.475Z,39.60
2023-03-21T09:44:34.371Z,30.07
2023-03-21T09:47:15.225Z,28.57
2023-03-21T09:49:45.521Z,28.30
2023-03-21T09:52:24.376Z,27.10
2023-03-21T09:54:52.167Z,25.63
2023-03-21T09:57:47.146Z,24.87
2023-03-21T10:00:21.797Z,27.00
2023-03-21T10:02:51.738Z,24.13
2023-03-21T10:05:25.750Z,25.63
2023-03-21T10:08:15.071Z,22.83
2023-03-21T10:10:54.399Z,24.70
2023-03-21T10:13:28.872Z,29.63
2023-03-21T10:16:14.005Z,26.20
2023-03-21T10:18:42.801Z,24.87
2023-03-21T10:21:43.071Z,25.50
2023-03-21T10:24:06.337Z,22.73
2023-03-21T10:26:33.172Z,25.77
2023-03-21T10:29:03.201Z,26.93
2023-03-21T10:31:31.198Z,24.40
2023-03-21T10:34:02.467Z,27.17
2023-03-21T10:36:31.931Z,28.83
2023-03-21T10:39:20.881Z,24.50
2023-03-21T10:41:47.527Z,25.07
2023-03-21T10:44:17.750Z,22.40
2023-03-21T10:46:57.136Z,24.93
2023-03-21T10:49:25.471Z,23.67
2023-03-21T10:51:56.578Z,22.50
2023-03-21T10:54:30.960Z,25.80
2023-03-21T10:57:11.880Z,22.63
2023-03-21T10:59:45.568Z,23.83
2023-03-21T11:02:19.852Z,25.10
2023-03-21T11:04:46.936Z,26.63
2023-03-21T11:07:15.353Z,26.03
2023-03-21T11:09:57.520Z,26.87
2023-03-21T11:12:37.552Z,26.97
2023-03-21T11:15:33.498Z,26.53
2023-03-21T11:18:12.892Z,26.50
2023-03-21T11:20:48.321Z,24.67
2023-03-21T11:23:15.228Z,25.67
2023-03-21T11:25:42.732Z,24.67
2023-03-21T11:28:15.854Z,24.47
2023-03-21T11:30:57.211Z,20.63
2023-03-21T11:33:28.369Z,22.83
2023-03-21T11:36:04.381Z,25.03
2023-03-21T11:38:39.662Z,23.23
2023-03-21T11:41:06.977Z,22.43
2023-03-21T11:43:39.395Z,24.57
2023-03-21T11:46:09.459Z,21.27
2023-03-21T11:48:44.105Z,22.10
2023-03-21T11:51:43.499Z,20.60
2023-03-21T11:54:20.575Z,22.50
2023-03-21T11:56:51.046Z,22.03
2023-03-21T12:00:13.205Z,24.77
2023-03-21T12:03:18.569Z,23.73
2023-03-21T12:06:01.220Z,22.57
2023-03-21T12:08:43.720Z,23.67
2023-03-21T12:11:37.107Z,24.87
2023-03-21T12:14:18.130Z,25.40
2023-03-21T12:17:17.823Z,23.17
2023-03-21T12:20:22.326Z,21.07
2023-03-21T12:23:03.704Z,23.27
2023-03-21T12:25:56.312Z,20.80
2023-03-21T12:28:56.852Z,19.53
2023-03-21T12:31:36.023Z,23.33
2023-03-21T12:34:30.960Z,19.83
2023-03-21T12:37:32.420Z,21.97
2023-03-21T12:40:35.389Z,53.00
2023-03-21T12:43:34.280Z,20.40
2023-03-21T12:46:34.710Z,22.30
2023-03-21T12:49:19.561Z,20.17
2023-03-21T12:51:55.583Z,20.93
2023-03-21T12:54:32.094Z,18.33
2023-03-21T12:57:19.102Z,19.77
2023-03-21T13:00:11.848Z,19.23
2023-03-21T13:03:03.669Z,20.10
2023-03-21T13:05:35.825Z,21.70
2023-03-21T13:08:18.216Z,20.90
2023-03-21T13:10:46.332Z,24.67
2023-03-21T13:13:29.367Z,18.90
2023-03-21T13:16:20.584Z,21.13
2023-03-21T13:19:22.402Z,19.50
2023-03-21T13:21:51.997Z,17.70
2023-03-21T13:24:48.475Z,18.33
2023-03-21T13:27:33.713Z,17.70
2023-03-21T13:30:06.544Z,20.07
2023-03-21T13:32:37.708Z,17.63
2023-03-21T13:35:15.080Z,21.10
2023-03-21T13:37:52.628Z,18.67
2023-03-21T13:40:38.315Z,21.23
2023-03-21T13:43:05.098Z,16.83
2023-03-21T13:45:33.127Z,18.33
2023-03-21T13:48:04.340Z,15.27
2023-03-21T13:51:00.802Z,17.93
2023-03-21T13:53:39.245Z,21.83
2023-03-21T13:56:20.998Z,16.67
2023-03-21T13:58:47.550Z,14.03
2023-03-21T14:01:39.396Z,17.30
2023-03-21T14:04:24.024Z,15.77
2023-03-21T14:06:58.929Z,13.33
2023-03-21T14:09:37.176Z,13.10
2023-03-21T14:12:07.891Z,11.20
2023-03-21T14:14:41.257Z,17.57
2023-03-21T14:17:22.219Z,16.20
2023-03-21T14:19:55.909Z,13.27
2023-03-21T14:22:22.912Z,13.17
2023-03-21T14:24:56.410Z,16.23
2023-03-21T14:27:25.722Z,11.57
2023-03-21T14:29:53.332Z,12.60
2023-03-21T14:32:24.130Z,13.90
2023-03-21T14:34:50.995Z,12.57
2023-03-21T14:37:47.661Z,14.10
2023-03-21T14:40:22.229Z,12.40
2023-03-21T14:42:50.250Z,16.27
2023-03-21T14:45:21.049Z,12.23
2023-03-21T14:48:04.442Z,13.93
2023-03-21T14:50:46.631Z,14.30
2023-03-21T14:53:35.857Z,15.37
2023-03-21T14:56:23.587Z,12.13
2023-03-21T14:58:50.484Z,11.33
2023-03-21T15:01:34.531Z,12.47
2023-03-21T15:04:05.834Z,12.37
2023-03-21T15:06:32.889Z,10.47
2023-03-21T15:09:02.289Z,12.00
2023-03-21T15:11:40.057Z,10.70
2023-03-21T15:14:11.765Z,12.73
2023-03-21T15:16:39.508Z,14.07
2023-03-21T15:19:07.138Z,10.00
2023-03-21T15:21:48.191Z,13.70
2023-03-21T15:24:36.186Z,11.17
2023-03-21T15:27:08.618Z,15.40
2023-03-21T15:29:36.961Z,9.73
2023-03-21T15:32:06.808Z,11.93
2023-03-21T15:34:33.719Z,12.27
2023-03-21T15:37:13.239Z,13.40
2023-03-21T15:39:40.106Z,9.97
2023-03-21T15:42:31.944Z,12.40
2023-03-21T15:45:02.312Z,12.13
2023-03-21T15:47:48.338Z,12.00
2023-03-21T15:50:24.171Z,11.00
2023-03-21T15:52:52.608Z,13.10
2023-03-21T15:55:27.912Z,11.67
2023-03-21T15:58:09.718Z,10.53
2023-03-21T16:00:40.996Z,14.17
2023-03-21T16:03:16.930Z,11.63
2023-03-21T16:06:00.805Z,12.40
2023-03-21T16:08:28.949Z,11.87
2023-03-21T16:11:15.620Z,11.33
2023-03-21T16:13:42.219Z,12.50
2023-03-21T16:16:23.632Z,10.20
2023-03-21T16:18:51.644Z,9.43
2023-03-21T16:21:21.358Z,11.07
2023-03-21T16:23:48.610Z,10.93
2023-03-21T16:26:18.389Z,11.80
2023-03-21T16:28:45.938Z,13.17
2023-03-21T16:31:19.636Z,10.70
2023-03-21T16:33:47.382Z,11.30
2023-03-21T16:36:17.818Z,13.17
2023-03-21T16:38:52.689Z,11.53
2023-03-21T16:41:19.962Z,13.40
2023-03-21T16:43:46.538Z,10.63
2023-03-21T16:46:23.545Z,15.40
2023-03-21T16:48:52.900Z,13.23
2023-03-21T16:51:41.218Z,16.17
2023-03-21T16:54:07.805Z,12.77
2023-03-21T16:56:41.756Z,14.43
2023-03-21T16:59:12.171Z,16.77
2023-03-21T17:01:41.112Z,14.67
2023-03-21T17:04:08.986Z,16.27
2023-03-21T17:06:44.655Z,17.33
2023-03-21T17:09:13.638Z,16.23
2023-03-21T17:11:41.508Z,16.33
2023-03-21T17:14:09.839Z,16.97
2023-03-21T17:16:37.014Z,17.53
2023-03-21T17:19:12.064Z,16.50
2023-03-21T17:21:38.621Z,17.33
2023-03-21T17:24:05.367Z,17.77
2023-03-21T17:26:32.219Z,14.43
2023-03-21T17:28:59.742Z,15.80
2023-03-21T17:31:30.536Z,15.83
2023-03-21T17:33:57.091Z,17.17
2023-03-21T17:36:35.461Z,16.23
2023-03-21T17:39:04.327Z,17.97
2023-03-21T17:41:30.899Z,15.53
2023-03-21T17:43:57.532Z,16.80
2023-03-21T17:46:27.224Z,17.13
2023-03-21T17:48:53.953Z,16.97
2023-03-21T17:51:22.986Z,17.57
2023-03-21T17:53:53.308Z,18.00
2023-03-21T17:56:30.715Z,19.60
2023-03-21T17:59:07.174Z,18.33
2023-03-21T18:01:35.405Z,18.10
2023-03-21T18:04:04.855Z,18.13
2023-03-21T18:06:33.963Z,19.50
2023-03-21T18:09:04.266Z,18.20
2023-03-21T18:11:30.893Z,19.90
2023-03-21T18:14:13.702Z,19.27
2023-03-21T18:16:42.424Z,23.17
2023-03-21T18:19:12.499Z,20.87
2023-03-21T18:21:40.660Z,18.73
2023-03-21T18:24:07.548Z,21.87
2023-03-21T18:26:34.286Z,19.40
2023-03-21T18:30:03.800Z,19.90
2023-03-21T18:32:04.538Z,22.17
2023-03-21T18:34:32.879Z,19.37
2023-03-21T18:36:59.607Z,19.50
2023-03-21T18:39:26.311Z,20.47
2023-03-21T18:41:57.847Z,21.67
2023-03-21T18:44:25.633Z,23.17
2023-03-21T18:46:52.517Z,22.37
2023-03-21T18:52:08.288Z,19.83
2023-03-21T18:54:36.519Z,24.33
2023-03-21T18:59:52.201Z,25.27
2023-03-21T19:02:19.089Z,21.37
2023-03-21T19:04:46.411Z,23.47
2023-03-21T19:07:13.146Z,22.10
2023-03-21T19:10:01.396Z,22.83
2023-03-21T19:12:27.206Z,21.00
2023-03-21T19:14:54.308Z,19.07
2023-03-21T19:20:08.551Z,18.87
2023-03-21T19:22:35.143Z,18.47
2023-03-21T19:25:01.760Z,18.37
2023-03-21T19:27:28.411Z,20.70
2023-03-21T19:30:10.821Z,20.27
2023-03-21T19:32:40.758Z,19.07
2023-03-21T19:35:07.819Z,19.13
2023-03-21T19:37:36.214Z,21.97
2023-03-21T19:40:05.268Z,21.90
2023-03-21T19:42:32.367Z,18.93
2023-03-21T19:44:59.070Z,20.87
2023-03-21T19:47:26.218Z,17.47
2023-03-21T19:52:40.697Z,15.80
2023-03-21T19:55:08.063Z,19.90
2023-03-21T19:57:35.050Z,18.23
2023-03-21T20:00:01.931Z,18.77
2023-03-21T20:02:36.956Z,19.13
2023-03-21T20:05:07.685Z,19.70
2023-03-21T20:07:34.527Z,20.57
2023-03-21T20:10:01.349Z,18.60
2023-03-21T20:12:28.560Z,20.17
2023-03-21T20:15:07.044Z,19.03
2023-03-21T20:17:36.100Z,20.17
2023-03-21T20:20:13.611Z,22.00
2023-03-21T20:25:28.339Z,21.33
2023-03-21T20:28:12.737Z,19.70
2023-03-21T20:30:53.879Z,19.63
2023-03-21T20:33:20.644Z,22.37
2023-03-21T20:38:36.633Z,22.23
2023-03-21T20:41:05.670Z,22.17
2023-03-21T20:46:19.970Z,26.10
2023-03-21T20:48:48.796Z,21.50
2023-03-21T20:52:14.765Z,25.37
2023-03-21T20:54:04.143Z,20.70
2023-03-21T20:56:30.973Z,21.60
2023-03-21T20:59:12.229Z,25.13
2023-03-21T21:01:43.070Z,21.93
2023-03-21T21:04:10.219Z,25.20
2023-03-21T21:06:36.908Z,24.07
2023-03-21T21:09:04.082Z,25.23
2023-03-21T21:14:17.634Z,29.53
2023-03-21T21:16:45.024Z,25.83
2023-03-21T21:19:11.650Z,25.53
2023-03-21T21:21:38.581Z,24.37
2023-03-21T21:24:07.572Z,25.17
2023-03-21T21:26:34.592Z,27.30
2023-03-21T21:29:01.689Z,27.80
2023-03-21T21:31:28.558Z,23.57
2023-03-21T21:33:55.342Z,29.87
2023-03-21T21:36:22.711Z,26.60
2023-03-21T21:38:49.708Z,27.07
2023-03-21T21:41:19.288Z,24.97
2023-03-21T21:43:47.030Z,26.87
2023-03-21T21:46:15.138Z,26.47
2023-03-21T21:48:42.506Z,25.83
2023-03-21T21:51:09.804Z,27.43
2023-03-21T21:53:40.888Z,27.00
2023-03-21T21:56:09.524Z,28.70
2023-03-21T21:58:38.915Z,27.63
2023-03-21T22:01:07.058Z,27.93
2023-03-21T22:03:40.877Z,26.77
2023-03-21T22:06:09.500Z,25.40
2023-03-21T22:08:36.339Z,25.60
2023-03-21T22:11:03.677Z,29.20
2023-03-21T22:13:30.242Z,27.30
2023-03-21T22:15:56.898Z,25.87
2023-03-21T22:18:23.500Z,27.17
2023-03-21T22:20:50.423Z,29.90
2023-03-21T22:23:19.275Z,27.50
2023-03-21T22:25:51.253Z,27.20
2023-03-21T22:28:17.897Z,28.00
2023-03-21T22:30:44.507Z,29.83
2023-03-21T22:33:11.054Z,25.23
2023-03-21T22:35:37.883Z,27.70
2023-03-21T22:38:04.536Z,24.23
2023-03-21T22:40:31.127Z,28.10
2023-03-21T22:42:57.687Z,32.90
2023-03-21T22:45:24.237Z,30.00
2023-03-21T22:47:51.253Z,25.53
2023-03-21T22:50:17.937Z,27.90
2023-03-21T22:52:44.544Z,27.13
2023-03-21T22:55:12.730Z,28.07
2023-03-21T22:57:39.331Z,29.07
2023-03-21T23:00:14.328Z,26.27
2023-03-21T23:02:42.517Z,23.80
2023-03-21T23:05:10.268Z,24.10
2023-03-21T23:07:37.241Z,26.70
2023-03-21T23:10:05.101Z,26.37
2023-03-21T23:12:31.973Z,27.23
2023-03-21T23:14:58.612Z,22.13
2023-03-21T23:17:26.579Z,22.27
2023-03-21T23:19:53.132Z,20.60
2023-03-21T23:22:19.739Z,22.63
2023-03-21T23:24:46.970Z,23.13
2023-03-21T23:27:14.204Z,18.93
2023-03-21T23:29:40.814Z,17.53
2023-03-21T23:32:07.375Z,20.63
2023-03-21T23:34:34.044Z,21.83
2023-03-21T23:37:00.753Z,18.90
2023-03-21T23:39:28.236Z,21.50
2023-03-21T23:41:54.992Z,21.33
2023-03-21T23:44:21.551Z,22.40
2023-03-21T23:46:48.103Z,22.50
2023-03-21T23:49:15.389Z,20.33
2023-03-21T23:51:42.174Z,19.03
2023-03-21T23:54:09.207Z,20.20
2023-03-21T23:56:36.396Z,21.50
2023-03-21T23:59:03.434Z,17.83
